KMCB/MCB METAR and TAF weather

Enter ICAO airport designator
Station Type Date Time Source
KMCB METAR 2019/02/18 03:53 UTC NOAA

KMCB 180353Z AUTO 36008KT 10SM OVC033 11/07 A2999 RMK AO2 SLP152 T01110067


Station Type Date Time Source
KMCB Decoded METAR 2019/02/18 03:53 UTC NOAA

MCCOMB/PIKE COUNTY AIRPORT, MS, United States (KMCB) 31-11N 90-28W 124M
Feb 17, 2019 - 10:53 PM EST / 2019.02.18 0353 UTC
Wind: from the N (360 degrees) at 9 MPH (8 KT):0
Visibility: 10 mile(s):0
Sky conditions: overcast
Temperature: 52.0 F (11.1 C)
Dew Point: 44.1 F (6.7 C)
Relative Humidity: 74%
Pressure (altimeter): 29.99 in. Hg (1015 hPa)
ob: KMCB 180353Z AUTO 36008KT 10SM OVC033 11/07 A2999 RMK AO2 SLP152 T01110067
cycle: 4

Station Type Date Time Source
KMCB TAF 2019/02/17 23:48 UTC NOAA

TAF
AMD KMCB 172245Z 1723/1818 34010G20KT P6SM SCT015 OVC045
FM180000 35012KT P6SM VCSH SCT015 OVC020
FM180200 36010KT P6SM SCT023 OVC150
FM180800 01010G18KT P6SM SCT050 BKN150


Example: see airport list